KDLF/DLF METAR and TAF weather

Enter ICAO airport designator
Station Type Date Time Source
KDLF METAR 2022/01/23 10:56 UTC NOAA

KDLF 231056Z AUTO 00000KT 10SM OVC035 07/01 A3030 RMK AO2 SLP263 T00700007 $


Station Type Date Time Source
KDLF Decoded METAR 2022/01/23 10:56 UTC NOAA

Laughlin, Laughlin Air Force Base Auxiliary Airfield, TX, United States (KDLF) 29-07-00N 100-28-00W 294M
Jan 23, 2022 - 05:56 AM EST / 2022.01.23 1056 UTC
Wind: Calm:0
Visibility: 10 mile(s):0
Sky conditions: overcast
Temperature: 44.6 F (7.0 C)
Dew Point: 33.3 F (0.7 C)
Relative Humidity: 64%
Pressure (altimeter): 30.3 in. Hg (1026 hPa)
ob: KDLF 231056Z AUTO 00000KT 10SM OVC035 07/01 A3030 RMK AO2 SLP263 T00700007
cycle: 11

Station Type Date Time Source
KDLF TAF 2022/01/21 23:36 UTC NOAA

TAF KDLF 212331Z 2123/2302 13008KT 9999 FEW040 QNH3023INS
BECMG 2208/2209 10006KT 9999 BKN040 QNH3031INS
BECMG 2217/2218 13009KT 9999 OVC040 QNH3033INS TX11/2123Z TN01/2210Z LAST NO
AMDS AFT 2123 NEXT 2412

Example: see airport list